RYR87SW EGSS-LOWS
Flight info
| Callsign | RYR87SW |
|---|---|
| Flight time | 1h 35m |
| Altitude | 37000 |
| Route | DET L6 DVR UL9 KONAN DCT KOK DCT DENOX DCT REMBA DCT RITAX DCT PITES M150 KRH DCT UTABA L607 XEBIX N871 BADVI L725 UNKEN UNKEN2R |
| Aircraft | B738/M-SDE2E3FGHIRWXY/LB1 |
Departure
| Time | 2026-05-04 13:24 |
|---|---|
| Airport | London Stansted Airport (EGSS) |
Arrival
| Time | 2026-05-04 14:59 |
|---|---|
| Airport | Salzburg Airport (LOWS) |
| Time | Latitude | Longitude | Altitude | Speed | Heading |
|---|---|---|---|---|---|
| 2026-05-04 12:50 | 51.89429 | 0.26159 | 350 ft | 0 kts | 43° |
| 2026-05-04 13:09 | 51.89423 | 0.26149 | 350 ft | 4 kts | 42° |
| 2026-05-04 13:09 | 51.89403 | 0.26122 | 358 ft | 4 kts | 26° |
| 2026-05-04 13:09 | 51.89384 | 0.26117 | 358 ft | 3 kts | 314° |
| 2026-05-04 13:10 | 51.89383 | 0.26120 | 358 ft | 1 kts | 312° |
| 2026-05-04 13:12 | 51.89387 | 0.26111 | 358 ft | 3 kts | 311° |
| 2026-05-04 13:12 | 51.89387 | 0.26110 | 358 ft | 0 kts | 311° |
| 2026-05-04 13:15 | 51.89400 | 0.26087 | 353 ft | 6 kts | 310° |
| 2026-05-04 13:15 | 51.89441 | 0.26013 | 353 ft | 12 kts | 312° |
| 2026-05-04 13:15 | 51.89511 | 0.25892 | 348 ft | 15 kts | 310° |
| 2026-05-04 13:16 | 51.89489 | 0.25747 | 346 ft | 14 kts | 221° |
| 2026-05-04 13:16 | 51.89404 | 0.25620 | 343 ft | 19 kts | 224° |
| 2026-05-04 13:16 | 51.89295 | 0.25454 | 343 ft | 24 kts | 223° |
| 2026-05-04 13:16 | 51.89165 | 0.25259 | 344 ft | 28 kts | 223° |
| 2026-05-04 13:17 | 51.89017 | 0.25040 | 342 ft | 30 kts | 223° |
| 2026-05-04 13:17 | 51.88860 | 0.24803 | 342 ft | 30 kts | 223° |
| 2026-05-04 13:17 | 51.88706 | 0.24573 | 346 ft | 30 kts | 223° |
| 2026-05-04 13:17 | 51.88559 | 0.24352 | 342 ft | 28 kts | 223° |
| 2026-05-04 13:18 | 51.88421 | 0.24144 | 338 ft | 26 kts | 223° |
| 2026-05-04 13:18 | 51.88290 | 0.23949 | 337 ft | 25 kts | 223° |
| 2026-05-04 13:18 | 51.88169 | 0.23766 | 337 ft | 23 kts | 223° |
| 2026-05-04 13:18 | 51.88053 | 0.23592 | 334 ft | 22 kts | 223° |
| 2026-05-04 13:19 | 51.87940 | 0.23423 | 334 ft | 22 kts | 223° |
| 2026-05-04 13:19 | 51.87831 | 0.23260 | 335 ft | 21 kts | 223° |
| 2026-05-04 13:19 | 51.87732 | 0.23095 | 334 ft | 14 kts | 248° |
| 2026-05-04 13:19 | 51.87769 | 0.22970 | 334 ft | 13 kts | 313° |
| 2026-05-04 13:20 | 51.87760 | 0.22856 | 333 ft | 13 kts | 221° |
| 2026-05-04 13:20 | 51.87692 | 0.22755 | 335 ft | 13 kts | 223° |
| 2026-05-04 13:20 | 51.87608 | 0.22627 | 337 ft | 21 kts | 222° |
| 2026-05-04 13:20 | 51.87521 | 0.22447 | 333 ft | 14 kts | 281° |
| 2026-05-04 13:21 | 51.87577 | 0.22333 | 328 ft | 4 kts | 309° |
| 2026-05-04 13:21 | 51.87579 | 0.22329 | 328 ft | 4 kts | 309° |
| 2026-05-04 13:21 | 51.87624 | 0.22275 | 326 ft | 12 kts | 336° |
| 2026-05-04 13:22 | 51.87717 | 0.22302 | 327 ft | 16 kts | 39° |
| 2026-05-04 13:22 | 51.87741 | 0.22339 | 329 ft | 0 kts | 43° |
| 2026-05-04 13:23 | 51.87742 | 0.22340 | 330 ft | 3 kts | 43° |
| 2026-05-04 13:23 | 51.87917 | 0.22603 | 335 ft | 68 kts | 42° |
| 2026-05-04 13:23 | 51.88411 | 0.23343 | 336 ft | 127 kts | 43° |
| 2026-05-04 13:23 | 51.89166 | 0.24493 | 472 ft | 161 kts | 41° |
| 2026-05-04 13:24 | 51.90032 | 0.25790 | 939 ft | 178 kts | 40° |
| 2026-05-04 13:24 | 51.90943 | 0.27143 | 1402 ft | 168 kts | 43° |
| 2026-05-04 13:24 | 51.91688 | 0.28671 | 1797 ft | 186 kts | 59° |
| 2026-05-04 13:25 | 51.91584 | 0.33010 | 2884 ft | 216 kts | 118° |
| 2026-05-04 13:25 | 51.90780 | 0.35084 | 3457 ft | 224 kts | 124° |
| 2026-05-04 13:25 | 51.89889 | 0.37205 | 4025 ft | 229 kts | 120° |
| 2026-05-04 13:25 | 51.89205 | 0.39608 | 4497 ft | 244 kts | 112° |
| 2026-05-04 13:26 | 51.88532 | 0.42275 | 4910 ft | 263 kts | 112° |
| 2026-05-04 13:26 | 51.87785 | 0.44984 | 5627 ft | 269 kts | 117° |
| 2026-05-04 13:26 | 51.86935 | 0.47742 | 6067 ft | 276 kts | 117° |
| 2026-05-04 13:26 | 51.86072 | 0.50510 | 6407 ft | 274 kts | 117° |
| 2026-05-04 13:27 | 51.85249 | 0.53284 | 6787 ft | 274 kts | 115° |
| 2026-05-04 13:27 | 51.84431 | 0.56106 | 7210 ft | 279 kts | 116° |
| 2026-05-04 13:27 | 51.83611 | 0.58973 | 7634 ft | 282 kts | 113° |
| 2026-05-04 13:27 | 51.83081 | 0.62039 | 8081 ft | 286 kts | 99° |
| 2026-05-04 13:28 | 51.82951 | 0.65251 | 8520 ft | 288 kts | 88° |
| 2026-05-04 13:28 | 51.83074 | 0.68492 | 8974 ft | 290 kts | 86° |
| 2026-05-04 13:28 | 51.83222 | 0.71754 | 9441 ft | 292 kts | 86° |
| 2026-05-04 13:28 | 51.83369 | 0.75060 | 9836 ft | 298 kts | 86° |
| 2026-05-04 13:29 | 51.83506 | 0.78427 | 10285 ft | 306 kts | 87° |
| 2026-05-04 13:29 | 51.83642 | 0.81931 | 10802 ft | 318 kts | 87° |
| 2026-05-04 13:29 | 51.83780 | 0.85575 | 11310 ft | 330 kts | 87° |
| 2026-05-04 13:29 | 51.83921 | 0.89340 | 11826 ft | 341 kts | 87° |
| 2026-05-04 13:30 | 51.84065 | 0.93224 | 12355 ft | 351 kts | 87° |
| 2026-05-04 13:30 | 51.84212 | 0.97207 | 12887 ft | 360 kts | 87° |
| 2026-05-04 13:30 | 51.84363 | 1.01304 | 13418 ft | 369 kts | 87° |
| 2026-05-04 13:30 | 51.84516 | 1.05501 | 13950 ft | 378 kts | 87° |
| 2026-05-04 13:31 | 51.84670 | 1.09777 | 14433 ft | 385 kts | 87° |
| 2026-05-04 13:31 | 51.84826 | 1.14144 | 14930 ft | 393 kts | 87° |
| 2026-05-04 13:31 | 51.84983 | 1.18590 | 15429 ft | 397 kts | 87° |
| 2026-05-04 13:31 | 51.85142 | 1.23043 | 15919 ft | 397 kts | 88° |
| 2026-05-04 13:32 | 51.85304 | 1.27506 | 16424 ft | 397 kts | 88° |
| 2026-05-04 13:32 | 51.85470 | 1.31971 | 16946 ft | 397 kts | 88° |
| 2026-05-04 13:32 | 51.85636 | 1.36370 | 17456 ft | 398 kts | 88° |
| 2026-05-04 13:32 | 51.85810 | 1.40863 | 18006 ft | 403 kts | 88° |
| 2026-05-04 13:33 | 51.85989 | 1.45412 | 18521 ft | 407 kts | 88° |
| 2026-05-04 13:33 | 51.86171 | 1.50006 | 18993 ft | 411 kts | 87° |
| 2026-05-04 13:33 | 51.86353 | 1.54633 | 19476 ft | 414 kts | 87° |
| 2026-05-04 13:33 | 51.86536 | 1.59307 | 19969 ft | 418 kts | 87° |
| 2026-05-04 13:34 | 51.86721 | 1.64011 | 20472 ft | 420 kts | 87° |
| 2026-05-04 13:34 | 51.86907 | 1.68748 | 20982 ft | 423 kts | 87° |
| 2026-05-04 13:34 | 51.87095 | 1.73511 | 21492 ft | 426 kts | 87° |
| 2026-05-04 13:34 | 51.87284 | 1.78295 | 22004 ft | 428 kts | 87° |
| 2026-05-04 13:35 | 51.87472 | 1.83117 | 22545 ft | 429 kts | 89° |
| 2026-05-04 13:35 | 51.86158 | 1.92170 | 23910 ft | 415 kts | 124° |
| 2026-05-04 13:35 | 51.84438 | 1.95956 | 24021 ft | 423 kts | 131° |
| 2026-05-04 13:36 | 51.82601 | 1.99760 | 24109 ft | 435 kts | 130° |
| 2026-05-04 13:36 | 51.80766 | 2.03736 | 24186 ft | 447 kts | 129° |
| 2026-05-04 13:36 | 51.78912 | 2.07835 | 24242 ft | 457 kts | 128° |
| 2026-05-04 13:36 | 51.77038 | 2.12016 | 24550 ft | 460 kts | 128° |
| 2026-05-04 13:37 | 51.75167 | 2.16197 | 25007 ft | 459 kts | 128° |
| 2026-05-04 13:37 | 51.73300 | 2.20360 | 25413 ft | 459 kts | 128° |
| 2026-05-04 13:37 | 51.71421 | 2.24535 | 25761 ft | 460 kts | 129° |
| 2026-05-04 13:37 | 51.70147 | 2.27356 | 25977 ft | 462 kts | 129° |
| 2026-05-04 13:38 | 51.67648 | 2.32872 | 26421 ft | 463 kts | 129° |
| 2026-05-04 13:38 | 51.65744 | 2.37064 | 26875 ft | 461 kts | 129° |
| 2026-05-04 13:38 | 51.63862 | 2.41199 | 27428 ft | 457 kts | 129° |
| 2026-05-04 13:38 | 51.62011 | 2.45261 | 27932 ft | 454 kts | 129° |
| 2026-05-04 13:39 | 51.60136 | 2.49367 | 28378 ft | 453 kts | 130° |
| 2026-05-04 13:39 | 51.58273 | 2.53440 | 28842 ft | 451 kts | 130° |
| 2026-05-04 13:39 | 51.56417 | 2.57491 | 29366 ft | 448 kts | 130° |
| 2026-05-04 13:39 | 51.54572 | 2.61513 | 29905 ft | 445 kts | 130° |
| 2026-05-04 13:40 | 51.52740 | 2.65500 | 30377 ft | 442 kts | 130° |
| 2026-05-04 13:40 | 51.50921 | 2.69453 | 30767 ft | 440 kts | 130° |
| 2026-05-04 13:40 | 51.49100 | 2.73403 | 31065 ft | 441 kts | 131° |
| 2026-05-04 13:40 | 51.47285 | 2.77331 | 31351 ft | 441 kts | 131° |
| 2026-05-04 13:41 | 51.45443 | 2.81314 | 31690 ft | 440 kts | 131° |
| 2026-05-04 13:41 | 51.43622 | 2.85247 | 32061 ft | 439 kts | 131° |
| 2026-05-04 13:41 | 51.41809 | 2.89156 | 32381 ft | 438 kts | 132° |
| 2026-05-04 13:42 | 51.38186 | 2.96953 | 33087 ft | 435 kts | 132° |
| 2026-05-04 13:42 | 51.36397 | 3.00792 | 33357 ft | 435 kts | 132° |
| 2026-05-04 13:42 | 51.34564 | 3.04719 | 33640 ft | 436 kts | 132° |
| 2026-05-04 13:42 | 51.32751 | 3.08600 | 33945 ft | 435 kts | 133° |
| 2026-05-04 13:43 | 51.30963 | 3.12420 | 34208 ft | 434 kts | 133° |
| 2026-05-04 13:43 | 51.29155 | 3.16279 | 34410 ft | 435 kts | 132° |
| 2026-05-04 13:43 | 51.27349 | 3.20125 | 34627 ft | 435 kts | 132° |
| 2026-05-04 13:43 | 51.25525 | 3.24006 | 34873 ft | 434 kts | 132° |
| 2026-05-04 13:44 | 51.23712 | 3.27857 | 35057 ft | 435 kts | 132° |
| 2026-05-04 13:44 | 51.21888 | 3.31727 | 35234 ft | 436 kts | 131° |
| 2026-05-04 13:44 | 51.20065 | 3.35586 | 35412 ft | 437 kts | 131° |
| 2026-05-04 13:44 | 51.18232 | 3.39462 | 35563 ft | 438 kts | 131° |
| 2026-05-04 13:45 | 51.16392 | 3.43348 | 35750 ft | 439 kts | 131° |
| 2026-05-04 13:45 | 51.14557 | 3.47219 | 35965 ft | 438 kts | 131° |
| 2026-05-04 13:45 | 51.12718 | 3.51091 | 36154 ft | 439 kts | 131° |
| 2026-05-04 13:45 | 51.10877 | 3.54962 | 36338 ft | 440 kts | 131° |
| 2026-05-04 13:46 | 51.09027 | 3.58845 | 36503 ft | 440 kts | 131° |
| 2026-05-04 13:46 | 51.07178 | 3.62721 | 36707 ft | 440 kts | 131° |
| 2026-05-04 13:46 | 51.05323 | 3.66604 | 36886 ft | 440 kts | 131° |
| 2026-05-04 13:46 | 51.03467 | 3.70481 | 36973 ft | 443 kts | 131° |
| 2026-05-04 13:47 | 50.99717 | 3.78300 | 36960 ft | 445 kts | 131° |
| 2026-05-04 13:47 | 50.95981 | 3.86074 | 36963 ft | 440 kts | 131° |
| 2026-05-04 13:48 | 50.92325 | 3.93657 | 36970 ft | 438 kts | 131° |
| 2026-05-04 13:48 | 50.88654 | 4.01341 | 36972 ft | 438 kts | 127° |
| 2026-05-04 13:49 | 50.86014 | 4.10074 | 37001 ft | 443 kts | 115° |
| 2026-05-04 13:49 | 50.83884 | 4.19180 | 36994 ft | 444 kts | 114° |
| 2026-05-04 13:50 | 50.81717 | 4.28344 | 36996 ft | 446 kts | 115° |
| 2026-05-04 13:50 | 50.79499 | 4.37510 | 36981 ft | 447 kts | 115° |
| 2026-05-04 13:51 | 50.77253 | 4.46701 | 37003 ft | 449 kts | 115° |
| 2026-05-04 13:51 | 50.75740 | 4.52865 | 36989 ft | 451 kts | 115° |
| 2026-05-04 13:52 | 50.75302 | 4.54649 | 36993 ft | 451 kts | 115° |
| 2026-05-04 13:53 | 50.73024 | 4.63899 | 36995 ft | 453 kts | 115° |
| 2026-05-04 13:53 | 50.70733 | 4.73171 | 36974 ft | 454 kts | 115° |
| 2026-05-04 13:54 | 50.67258 | 4.87064 | 36975 ft | 453 kts | 119° |
| 2026-05-04 13:54 | 50.63863 | 4.95232 | 36981 ft | 441 kts | 138° |
| 2026-05-04 13:55 | 50.61703 | 4.98627 | 36991 ft | 438 kts | 140° |
| 2026-05-04 13:55 | 50.55115 | 5.08632 | 36973 ft | 439 kts | 140° |
| 2026-05-04 13:56 | 50.50747 | 5.15324 | 36981 ft | 438 kts | 140° |
| 2026-05-04 13:57 | 50.44960 | 5.24229 | 36987 ft | 437 kts | 140° |
| 2026-05-04 13:58 | 50.36270 | 5.37552 | 37003 ft | 438 kts | 140° |
| 2026-05-04 13:58 | 50.29714 | 5.47553 | 36985 ft | 438 kts | 140° |
| 2026-05-04 13:59 | 50.25344 | 5.54197 | 36973 ft | 438 kts | 140° |
| 2026-05-04 14:00 | 50.18789 | 5.64131 | 36994 ft | 437 kts | 140° |
| 2026-05-04 14:00 | 50.12235 | 5.74027 | 36994 ft | 437 kts | 140° |
| 2026-05-04 14:01 | 50.07869 | 5.80634 | 37000 ft | 439 kts | 138° |
| 2026-05-04 14:02 | 50.02209 | 5.91992 | 37002 ft | 445 kts | 131° |
| 2026-05-04 14:02 | 49.98527 | 5.99739 | 36988 ft | 445 kts | 131° |
| 2026-05-04 14:03 | 49.94809 | 6.07420 | 37004 ft | 445 kts | 131° |
| 2026-05-04 14:03 | 49.91065 | 6.15075 | 37004 ft | 445 kts | 132° |
| 2026-05-04 14:04 | 49.85442 | 6.26521 | 36993 ft | 444 kts | 132° |
| 2026-05-04 14:04 | 49.81718 | 6.34155 | 36994 ft | 446 kts | 128° |
| 2026-05-04 14:05 | 49.77140 | 6.46900 | 37005 ft | 458 kts | 122° |
| 2026-05-04 14:06 | 49.74156 | 6.55564 | 37001 ft | 465 kts | 123° |
| 2026-05-04 14:06 | 49.71052 | 6.64395 | 36990 ft | 467 kts | 123° |
| 2026-05-04 14:07 | 49.67915 | 6.73202 | 36992 ft | 468 kts | 123° |
| 2026-05-04 14:07 | 49.64784 | 6.81947 | 36977 ft | 463 kts | 123° |
| 2026-05-04 14:08 | 49.61681 | 6.90583 | 36985 ft | 458 kts | 123° |
| 2026-05-04 14:08 | 49.58596 | 6.99139 | 36986 ft | 456 kts | 124° |
| 2026-05-04 14:09 | 49.53972 | 7.11907 | 37010 ft | 454 kts | 124° |
| 2026-05-04 14:10 | 49.49332 | 7.24658 | 36998 ft | 456 kts | 123° |
| 2026-05-04 14:10 | 49.46218 | 7.33184 | 37013 ft | 459 kts | 124° |
| 2026-05-04 14:11 | 49.43081 | 7.41742 | 37011 ft | 461 kts | 124° |
| 2026-05-04 14:11 | 49.38330 | 7.54654 | 36981 ft | 464 kts | 124° |
| 2026-05-04 14:12 | 49.35143 | 7.63283 | 36968 ft | 465 kts | 124° |
| 2026-05-04 14:13 | 49.30343 | 7.76221 | 36988 ft | 466 kts | 124° |
| 2026-05-04 14:13 | 49.27131 | 7.84844 | 36984 ft | 466 kts | 124° |
| 2026-05-04 14:14 | 49.24458 | 7.92000 | 36975 ft | 465 kts | 124° |
| 2026-05-04 14:14 | 49.19090 | 8.06307 | 36982 ft | 464 kts | 124° |
| 2026-05-04 14:15 | 49.12653 | 8.23361 | 36994 ft | 463 kts | 124° |
| 2026-05-04 14:16 | 49.07785 | 8.36185 | 36971 ft | 466 kts | 124° |
| 2026-05-04 14:17 | 49.02909 | 8.48977 | 36974 ft | 464 kts | 124° |
| 2026-05-04 14:18 | 48.97389 | 8.60833 | 36976 ft | 452 kts | 142° |
| 2026-05-04 14:19 | 48.87615 | 8.72565 | 36981 ft | 448 kts | 146° |
| 2026-05-04 14:19 | 48.82704 | 8.78421 | 36958 ft | 449 kts | 146° |
| 2026-05-04 14:20 | 48.77808 | 8.84293 | 36967 ft | 449 kts | 146° |
| 2026-05-04 14:20 | 48.72910 | 8.90163 | 36980 ft | 450 kts | 146° |
| 2026-05-04 14:21 | 48.65512 | 8.98997 | 36984 ft | 453 kts | 146° |
| 2026-05-04 14:21 | 48.60551 | 9.04902 | 36959 ft | 454 kts | 146° |
| 2026-05-04 14:22 | 48.55593 | 9.10789 | 36971 ft | 454 kts | 146° |
| 2026-05-04 14:22 | 48.50623 | 9.16674 | 36968 ft | 454 kts | 146° |
| 2026-05-04 14:23 | 48.43175 | 9.25464 | 36968 ft | 454 kts | 146° |
| 2026-05-04 14:24 | 48.38198 | 9.31321 | 36970 ft | 454 kts | 146° |
| 2026-05-04 14:24 | 48.33220 | 9.37164 | 36947 ft | 454 kts | 146° |
| 2026-05-04 14:25 | 48.28243 | 9.42994 | 36968 ft | 454 kts | 146° |
| 2026-05-04 14:25 | 48.20911 | 9.51984 | 36958 ft | 455 kts | 142° |
| 2026-05-04 14:26 | 48.16149 | 9.58247 | 36963 ft | 455 kts | 142° |
| 2026-05-04 14:26 | 48.11381 | 9.64473 | 36965 ft | 455 kts | 142° |
| 2026-05-04 14:27 | 48.06600 | 9.70648 | 36965 ft | 455 kts | 143° |
| 2026-05-04 14:27 | 48.01799 | 9.76818 | 36955 ft | 455 kts | 143° |
| 2026-05-04 14:28 | 47.97013 | 9.82991 | 36714 ft | 456 kts | 141° |
| 2026-05-04 14:28 | 47.94580 | 9.86059 | 36435 ft | 457 kts | 143° |
| 2026-05-04 14:28 | 47.92222 | 9.89052 | 36521 ft | 452 kts | 142° |
| 2026-05-04 14:29 | 47.82630 | 10.01221 | 36544 ft | 455 kts | 145° |
| 2026-05-04 14:30 | 47.77604 | 10.06817 | 36538 ft | 455 kts | 147° |
| 2026-05-04 14:31 | 47.69917 | 10.15178 | 36537 ft | 456 kts | 146° |
| 2026-05-04 14:32 | 47.59717 | 10.26409 | 36411 ft | 455 kts | 146° |
| 2026-05-04 14:32 | 47.57192 | 10.29182 | 36131 ft | 449 kts | 146° |
| 2026-05-04 14:32 | 47.54699 | 10.31918 | 35767 ft | 444 kts | 146° |
| 2026-05-04 14:32 | 47.52227 | 10.34629 | 35349 ft | 440 kts | 146° |
| 2026-05-04 14:33 | 47.49783 | 10.37309 | 34970 ft | 434 kts | 146° |
| 2026-05-04 14:33 | 47.47367 | 10.39954 | 34583 ft | 429 kts | 146° |
| 2026-05-04 14:33 | 47.45008 | 10.42609 | 34190 ft | 426 kts | 140° |
| 2026-05-04 14:33 | 47.43153 | 10.46042 | 33753 ft | 433 kts | 120° |
| 2026-05-04 14:34 | 47.42121 | 10.50245 | 33374 ft | 442 kts | 102° |
| 2026-05-04 14:34 | 47.41920 | 10.54792 | 33055 ft | 450 kts | 87° |
| 2026-05-04 14:34 | 47.42635 | 10.59317 | 32647 ft | 453 kts | 71° |
| 2026-05-04 14:34 | 47.43760 | 10.63658 | 32267 ft | 453 kts | 70° |
| 2026-05-04 14:35 | 47.44913 | 10.67981 | 31848 ft | 452 kts | 70° |
| 2026-05-04 14:35 | 47.46023 | 10.72308 | 31428 ft | 448 kts | 71° |
| 2026-05-04 14:35 | 47.47088 | 10.76602 | 31037 ft | 442 kts | 72° |
| 2026-05-04 14:35 | 47.48119 | 10.80856 | 30656 ft | 437 kts | 72° |
| 2026-05-04 14:36 | 47.49131 | 10.85062 | 30291 ft | 433 kts | 72° |
| 2026-05-04 14:36 | 47.50137 | 10.89245 | 29888 ft | 429 kts | 72° |
| 2026-05-04 14:36 | 47.51131 | 10.93380 | 29441 ft | 425 kts | 72° |
| 2026-05-04 14:36 | 47.52115 | 10.97472 | 29067 ft | 420 kts | 71° |
| 2026-05-04 14:37 | 47.53081 | 11.01492 | 28683 ft | 416 kts | 72° |
| 2026-05-04 14:37 | 47.54048 | 11.05523 | 28297 ft | 417 kts | 72° |
| 2026-05-04 14:37 | 47.55017 | 11.09578 | 27959 ft | 419 kts | 72° |
| 2026-05-04 14:37 | 47.55985 | 11.13649 | 27592 ft | 422 kts | 72° |
| 2026-05-04 14:38 | 47.56975 | 11.17836 | 27236 ft | 441 kts | 72° |
| 2026-05-04 14:38 | 47.58010 | 11.22218 | 26821 ft | 459 kts | 72° |
| 2026-05-04 14:38 | 47.59062 | 11.26669 | 26382 ft | 458 kts | 72° |
| 2026-05-04 14:38 | 47.60115 | 11.31129 | 25931 ft | 456 kts | 72° |
| 2026-05-04 14:39 | 47.61158 | 11.35555 | 25497 ft | 454 kts | 72° |
| 2026-05-04 14:39 | 47.62191 | 11.39949 | 25072 ft | 451 kts | 72° |
| 2026-05-04 14:39 | 47.63162 | 11.44364 | 24656 ft | 449 kts | 73° |
| 2026-05-04 14:40 | 47.64946 | 11.53129 | 23848 ft | 445 kts | 74° |
| 2026-05-04 14:40 | 47.65847 | 11.57517 | 23394 ft | 445 kts | 74° |
| 2026-05-04 14:40 | 47.66747 | 11.61910 | 22887 ft | 444 kts | 74° |
| 2026-05-04 14:40 | 47.67638 | 11.66275 | 22438 ft | 441 kts | 74° |
| 2026-05-04 14:41 | 47.68519 | 11.70606 | 22005 ft | 437 kts | 74° |
| 2026-05-04 14:41 | 47.69392 | 11.74904 | 21607 ft | 433 kts | 74° |
| 2026-05-04 14:41 | 47.71067 | 11.83401 | 20795 ft | 425 kts | 76° |
| 2026-05-04 14:42 | 47.72602 | 11.91780 | 20010 ft | 417 kts | 76° |
| 2026-05-04 14:42 | 47.73115 | 11.94584 | 19743 ft | 415 kts | 77° |
| 2026-05-04 14:42 | 47.73768 | 11.98676 | 19369 ft | 412 kts | 79° |
| 2026-05-04 14:43 | 47.74350 | 12.02825 | 18965 ft | 409 kts | 80° |
| 2026-05-04 14:43 | 47.74911 | 12.06962 | 18580 ft | 407 kts | 81° |
| 2026-05-04 14:43 | 47.75472 | 12.11071 | 18210 ft | 404 kts | 81° |
| 2026-05-04 14:43 | 47.76041 | 12.15162 | 17750 ft | 404 kts | 80° |
| 2026-05-04 14:44 | 47.76615 | 12.19238 | 17348 ft | 403 kts | 80° |
| 2026-05-04 14:44 | 47.77189 | 12.23307 | 16936 ft | 401 kts | 80° |
| 2026-05-04 14:44 | 47.77752 | 12.27346 | 16538 ft | 399 kts | 81° |
| 2026-05-04 14:44 | 47.78306 | 12.31385 | 16143 ft | 397 kts | 81° |
| 2026-05-04 14:45 | 47.78854 | 12.35399 | 15750 ft | 396 kts | 81° |
| 2026-05-04 14:45 | 47.79400 | 12.39398 | 15361 ft | 394 kts | 81° |
| 2026-05-04 14:45 | 47.79941 | 12.43382 | 14977 ft | 392 kts | 81° |
| 2026-05-04 14:45 | 47.80478 | 12.47339 | 14634 ft | 388 kts | 81° |
| 2026-05-04 14:46 | 47.81009 | 12.51253 | 14237 ft | 383 kts | 81° |
| 2026-05-04 14:46 | 47.81533 | 12.55130 | 13774 ft | 382 kts | 81° |
| 2026-05-04 14:46 | 47.82142 | 12.58965 | 13251 ft | 382 kts | 71° |
| 2026-05-04 14:46 | 47.83464 | 12.62295 | 12926 ft | 368 kts | 52° |
| 2026-05-04 14:47 | 47.85146 | 12.65118 | 12393 ft | 360 kts | 47° |
| 2026-05-04 14:47 | 47.86857 | 12.67781 | 11881 ft | 352 kts | 47° |
| 2026-05-04 14:47 | 47.88540 | 12.70389 | 11384 ft | 346 kts | 47° |
| 2026-05-04 14:47 | 47.90179 | 12.72972 | 10888 ft | 340 kts | 48° |
| 2026-05-04 14:48 | 47.91775 | 12.75530 | 10403 ft | 334 kts | 48° |
| 2026-05-04 14:48 | 47.93336 | 12.78052 | 9926 ft | 329 kts | 49° |
| 2026-05-04 14:48 | 47.94886 | 12.80538 | 9410 ft | 325 kts | 44° |
| 2026-05-04 14:48 | 47.96753 | 12.82347 | 8852 ft | 320 kts | 18° |
| 2026-05-04 14:49 | 47.98909 | 12.82803 | 8365 ft | 312 kts | 354° |
| 2026-05-04 14:49 | 48.00978 | 12.82018 | 7888 ft | 305 kts | 332° |
| 2026-05-04 14:49 | 48.02657 | 12.80235 | 7400 ft | 299 kts | 313° |
| 2026-05-04 14:49 | 48.03996 | 12.77840 | 6922 ft | 296 kts | 306° |
| 2026-05-04 14:50 | 48.05201 | 12.75391 | 6449 ft | 296 kts | 305° |
| 2026-05-04 14:50 | 48.06405 | 12.72843 | 5954 ft | 296 kts | 304° |
| 2026-05-04 14:50 | 48.07566 | 12.70345 | 5459 ft | 297 kts | 304° |
| 2026-05-04 14:50 | 48.08738 | 12.67797 | 4994 ft | 297 kts | 304° |
| 2026-05-04 14:51 | 48.09870 | 12.65320 | 4986 ft | 280 kts | 306° |
| 2026-05-04 14:51 | 48.11257 | 12.63460 | 4965 ft | 262 kts | 338° |
| 2026-05-04 14:51 | 48.12980 | 12.63164 | 4965 ft | 247 kts | 15° |
| 2026-05-04 14:51 | 48.14398 | 12.64455 | 4974 ft | 240 kts | 54° |
| 2026-05-04 14:52 | 48.14980 | 12.66769 | 5019 ft | 251 kts | 82° |
| 2026-05-04 14:52 | 48.15436 | 12.69297 | 4975 ft | 251 kts | 68° |
| 2026-05-04 14:52 | 48.15990 | 12.71751 | 4969 ft | 248 kts | 80° |
| 2026-05-04 14:52 | 48.16055 | 12.74299 | 4969 ft | 244 kts | 98° |
| 2026-05-04 14:53 | 48.15561 | 12.76699 | 4967 ft | 240 kts | 117° |
| 2026-05-04 14:53 | 48.14620 | 12.78744 | 4969 ft | 238 kts | 134° |
| 2026-05-04 14:53 | 48.13283 | 12.80196 | 4977 ft | 245 kts | 153° |
| 2026-05-04 14:53 | 48.11664 | 12.81350 | 4987 ft | 266 kts | 154° |
| 2026-05-04 14:54 | 48.09976 | 12.82529 | 4994 ft | 269 kts | 154° |
| 2026-05-04 14:54 | 48.08275 | 12.83711 | 4987 ft | 270 kts | 154° |
| 2026-05-04 14:54 | 48.06572 | 12.84904 | 4977 ft | 270 kts | 152° |
| 2026-05-04 14:54 | 48.04898 | 12.86139 | 5072 ft | 265 kts | 157° |
| 2026-05-04 14:55 | 48.03159 | 12.86934 | 5463 ft | 263 kts | 167° |
| 2026-05-04 14:55 | 48.01366 | 12.87595 | 5988 ft | 269 kts | 161° |
| 2026-05-04 14:55 | 47.99637 | 12.88578 | 6230 ft | 262 kts | 158° |
| 2026-05-04 14:55 | 47.97964 | 12.89619 | 6182 ft | 259 kts | 157° |
| 2026-05-04 14:56 | 47.96325 | 12.90651 | 5992 ft | 253 kts | 157° |
| 2026-05-04 14:56 | 47.94719 | 12.91639 | 5802 ft | 244 kts | 157° |
| 2026-05-04 14:56 | 47.93189 | 12.92559 | 5608 ft | 231 kts | 157° |
| 2026-05-04 14:56 | 47.91712 | 12.93435 | 5198 ft | 231 kts | 157° |
| 2026-05-04 14:57 | 47.90201 | 12.94323 | 4570 ft | 237 kts | 157° |
| 2026-05-04 14:57 | 47.88651 | 12.95215 | 3902 ft | 237 kts | 158° |
| 2026-05-04 14:57 | 47.87109 | 12.95935 | 3428 ft | 225 kts | 162° |
| 2026-05-04 14:57 | 47.85662 | 12.96556 | 3075 ft | 207 kts | 161° |
| 2026-05-04 14:58 | 47.84359 | 12.97219 | 2675 ft | 178 kts | 156° |
| 2026-05-04 14:58 | 47.83351 | 12.97825 | 2356 ft | 148 kts | 154° |
| 2026-05-04 14:58 | 47.82399 | 12.98448 | 2030 ft | 150 kts | 154° |
| 2026-05-04 14:58 | 47.81446 | 12.99061 | 1703 ft | 150 kts | 153° |
| 2026-05-04 14:59 | 47.80515 | 12.99648 | 1487 ft | 142 kts | 154° |
| 2026-05-04 14:59 | 47.79674 | 13.00186 | 1423 ft | 108 kts | 157° |
| 2026-05-04 14:59 | 47.78815 | 13.00724 | 1421 ft | 27 kts | 156° |
| 2026-05-04 15:00 | 47.78714 | 13.00787 | 1420 ft | 17 kts | 157° |
| 2026-05-04 15:00 | 47.78588 | 13.00846 | 1418 ft | 20 kts | 191° |
| 2026-05-04 15:00 | 47.78538 | 13.00749 | 1421 ft | 9 kts | 248° |
| 2026-05-04 15:01 | 47.78584 | 13.00600 | 1421 ft | 9 kts | 335° |
| 2026-05-04 15:01 | 47.78639 | 13.00564 | 1420 ft | 9 kts | 338° |
| 2026-05-04 15:01 | 47.78694 | 13.00530 | 1420 ft | 9 kts | 338° |
| 2026-05-04 15:01 | 47.78754 | 13.00494 | 1419 ft | 9 kts | 338° |
| 2026-05-04 15:02 | 47.78814 | 13.00457 | 1419 ft | 9 kts | 336° |
| 2026-05-04 15:02 | 47.78872 | 13.00418 | 1419 ft | 9 kts | 336° |
| 2026-05-04 15:02 | 47.78931 | 13.00381 | 1424 ft | 9 kts | 337° |
| 2026-05-04 15:02 | 47.78991 | 13.00343 | 1418 ft | 10 kts | 337° |
| 2026-05-04 15:03 | 47.79056 | 13.00302 | 1419 ft | 10 kts | 337° |
| 2026-05-04 15:03 | 47.79124 | 13.00260 | 1420 ft | 11 kts | 337° |
| 2026-05-04 15:03 | 47.79208 | 13.00208 | 1420 ft | 15 kts | 337° |
| 2026-05-04 15:03 | 47.79309 | 13.00145 | 1422 ft | 15 kts | 336° |
| 2026-05-04 15:04 | 47.79354 | 13.00068 | 1421 ft | 9 kts | 264° |
| 2026-05-04 15:04 | 47.79317 | 12.99959 | 1421 ft | 15 kts | 214° |
| 2026-05-04 15:04 | 47.79275 | 12.99923 | 1421 ft | 1 kts | 219° |
| 2026-05-04 15:04 | 47.79263 | 12.99906 | 1421 ft | 1 kts | 227° |
| 2026-05-04 15:05 | 47.79249 | 12.99885 | 1421 ft | 0 kts | 230° |
| 2026-05-04 15:05 | 47.79249 | 12.99882 | 1421 ft | 0 kts | 251° |
| 2026-05-04 15:05 | 47.79252 | 12.99872 | 1421 ft | 2 kts | 283° |
| 2026-05-04 15:05 | 47.79253 | 12.99865 | 1421 ft | 0 kts | 283° |